sensor_id;sensor_type;location;lat;lon;timestamp;P1;durP1;ratioP1;P2;durP2;ratioP2
13487;SDS011;6816;48.506;9.050;2023-06-22T00:00:26;6.43;;;5.82;;
13487;SDS011;6816;48.506;9.050;2023-06-22T00:03:26;8.60;;;6.15;;
13487;SDS011;6816;48.506;9.050;2023-06-22T00:06:27;5.95;;;5.45;;
13487;SDS011;6816;48.506;9.050;2023-06-22T00:09:28;7.28;;;6.13;;
13487;SDS011;6816;48.506;9.050;2023-06-22T00:12:29;6.32;;;5.70;;
13487;SDS011;6816;48.506;9.050;2023-06-22T00:15:29;7.47;;;5.20;;
13487;SDS011;6816;48.506;9.050;2023-06-22T00:18:30;6.25;;;5.60;;
13487;SDS011;6816;48.506;9.050;2023-06-22T00:21:32;5.88;;;5.28;;
13487;SDS011;6816;48.506;9.050;2023-06-22T00:24:33;6.88;;;5.72;;
13487;SDS011;6816;48.506;9.050;2023-06-22T00:27:34;6.40;;;5.80;;
13487;SDS011;6816;48.506;9.050;2023-06-22T00:30:36;6.43;;;5.82;;
13487;SDS011;6816;48.506;9.050;2023-06-22T00:33:36;5.95;;;5.25;;
13487;SDS011;6816;48.506;9.050;2023-06-22T00:36:37;5.75;;;5.25;;
13487;SDS011;6816;48.506;9.050;2023-06-22T00:39:40;6.43;;;5.70;;
13487;SDS011;6816;48.506;9.050;2023-06-22T00:42:41;6.07;;;5.55;;
13487;SDS011;6816;48.506;9.050;2023-06-22T00:45:42;6.93;;;6.32;;
13487;SDS011;6816;48.506;9.050;2023-06-22T00:48:42;6.30;;;5.78;;
13487;SDS011;6816;48.506;9.050;2023-06-22T00:51:44;6.75;;;6.15;;
13487;SDS011;6816;48.506;9.050;2023-06-22T00:54:46;7.90;;;6.20;;
13487;SDS011;6816;48.506;9.050;2023-06-22T00:57:50;6.60;;;6.03;;
13487;SDS011;6816;48.506;9.050;2023-06-22T01:00:53;6.90;;;6.20;;
13487;SDS011;6816;48.506;9.050;2023-06-22T01:03:54;6.50;;;5.90;;
13487;SDS011;6816;48.506;9.050;2023-06-22T01:06:59;6.15;;;5.57;;
13487;SDS011;6816;48.506;9.050;2023-06-22T01:16:47;6.10;;;5.57;;
13487;SDS011;6816;48.506;9.050;2023-06-22T01:19:49;7.07;;;5.68;;
13487;SDS011;6816;48.506;9.050;2023-06-22T01:27:00;6.88;;;5.95;;
13487;SDS011;6816;48.506;9.050;2023-06-22T01:30:23;6.57;;;5.97;;
13487;SDS011;6816;48.506;9.050;2023-06-22T01:33:26;6.35;;;5.75;;
13487;SDS011;6816;48.506;9.050;2023-06-22T01:36:27;6.20;;;5.70;;
13487;SDS011;6816;48.506;9.050;2023-06-22T01:39:29;6.07;;;5.53;;
13487;SDS011;6816;48.506;9.050;2023-06-22T01:42:31;6.47;;;5.40;;
13487;SDS011;6816;48.506;9.050;2023-06-22T01:45:32;6.60;;;5.50;;
13487;SDS011;6816;48.506;9.050;2023-06-22T01:48:33;7.10;;;5.82;;
13487;SDS011;6816;48.506;9.050;2023-06-22T01:51:34;6.18;;;5.57;;
13487;SDS011;6816;48.506;9.050;2023-06-22T01:54:34;6.93;;;5.72;;
13487;SDS011;6816;48.506;9.050;2023-06-22T01:57:35;6.40;;;5.80;;
13487;SDS011;6816;48.506;9.050;2023-06-22T02:00:37;7.25;;;6.13;;
13487;SDS011;6816;48.506;9.050;2023-06-22T02:03:55;6.85;;;6.25;;
13487;SDS011;6816;48.506;9.050;2023-06-22T02:07:06;6.75;;;6.05;;
13487;SDS011;6816;48.506;9.050;2023-06-22T02:10:13;7.15;;;6.30;;
13487;SDS011;6816;48.506;9.050;2023-06-22T02:13:16;6.88;;;6.32;;
13487;SDS011;6816;48.506;9.050;2023-06-22T02:16:17;6.63;;;6.00;;
13487;SDS011;6816;48.506;9.050;2023-06-22T02:19:23;7.15;;;6.47;;
13487;SDS011;6816;48.506;9.050;2023-06-22T02:22:24;7.07;;;6.43;;
13487;SDS011;6816;48.506;9.050;2023-06-22T02:25:25;6.70;;;6.10;;
13487;SDS011;6816;48.506;9.050;2023-06-22T02:28:25;6.93;;;6.22;;
13487;SDS011;6816;48.506;9.050;2023-06-22T02:31:26;6.75;;;6.15;;
13487;SDS011;6816;48.506;9.050;2023-06-22T02:34:30;6.88;;;6.28;;
13487;SDS011;6816;48.506;9.050;2023-06-22T02:37:32;6.57;;;5.97;;
13487;SDS011;6816;48.506;9.050;2023-06-22T02:40:33;7.32;;;6.63;;
13487;SDS011;6816;48.506;9.050;2023-06-22T02:43:33;6.65;;;5.88;;
13487;SDS011;6816;48.506;9.050;2023-06-22T02:46:34;6.85;;;5.75;;
13487;SDS011;6816;48.506;9.050;2023-06-22T02:49:36;8.13;;;6.93;;
13487;SDS011;6816;48.506;9.050;2023-06-22T02:52:36;7.32;;;6.63;;
13487;SDS011;6816;48.506;9.050;2023-06-22T02:55:39;8.10;;;6.30;;
13487;SDS011;6816;48.506;9.050;2023-06-22T02:58:39;6.95;;;6.35;;
13487;SDS011;6816;48.506;9.050;2023-06-22T03:01:40;7.07;;;6.35;;
13487;SDS011;6816;48.506;9.050;2023-06-22T03:04:41;6.80;;;5.95;;
13487;SDS011;6816;48.506;9.050;2023-06-22T03:07:42;8.13;;;6.28;;
13487;SDS011;6816;48.506;9.050;2023-06-22T03:10:43;9.57;;;7.00;;
13487;SDS011;6816;48.506;9.050;2023-06-22T03:13:44;7.68;;;6.47;;
13487;SDS011;6816;48.506;9.050;2023-06-22T03:16:46;7.43;;;6.72;;
13487;SDS011;6816;48.506;9.050;2023-06-22T03:19:47;7.30;;;6.68;;
13487;SDS011;6816;48.506;9.050;2023-06-22T03:22:48;7.78;;;6.97;;
13487;SDS011;6816;48.506;9.050;2023-06-22T03:25:48;7.75;;;7.05;;
13487;SDS011;6816;48.506;9.050;2023-06-22T03:28:49;7.18;;;6.47;;
13487;SDS011;6816;48.506;9.050;2023-06-22T03:31:50;8.70;;;6.05;;
13487;SDS011;6816;48.506;9.050;2023-06-22T03:34:50;6.97;;;6.13;;
13487;SDS011;6816;48.506;9.050;2023-06-22T03:37:51;8.10;;;6.22;;
13487;SDS011;6816;48.506;9.050;2023-06-22T03:40:51;8.90;;;7.28;;
13487;SDS011;6816;48.506;9.050;2023-06-22T03:43:52;7.82;;;7.00;;
13487;SDS011;6816;48.506;9.050;2023-06-22T03:46:53;7.28;;;6.55;;
13487;SDS011;6816;48.506;9.050;2023-06-22T03:49:53;7.75;;;6.38;;
13487;SDS011;6816;48.506;9.050;2023-06-22T03:52:55;8.43;;;7.20;;
13487;SDS011;6816;48.506;9.050;2023-06-22T03:55:56;8.82;;;6.63;;
13487;SDS011;6816;48.506;9.050;2023-06-22T03:58:56;7.50;;;6.55;;
13487;SDS011;6816;48.506;9.050;2023-06-22T04:01:57;7.80;;;6.68;;
13487;SDS011;6816;48.506;9.050;2023-06-22T04:04:57;9.38;;;6.50;;
13487;SDS011;6816;48.506;9.050;2023-06-22T04:07:58;8.75;;;6.22;;
13487;SDS011;6816;48.506;9.050;2023-06-22T04:10:59;7.20;;;6.50;;
13487;SDS011;6816;48.506;9.050;2023-06-22T04:13:59;7.75;;;6.90;;
13487;SDS011;6816;48.506;9.050;2023-06-22T04:17:00;10.38;;;7.32;;
13487;SDS011;6816;48.506;9.050;2023-06-22T04:20:01;6.63;;;6.00;;
13487;SDS011;6816;48.506;9.050;2023-06-22T04:23:04;7.00;;;6.05;;
13487;SDS011;6816;48.506;9.050;2023-06-22T04:26:05;9.15;;;6.68;;
13487;SDS011;6816;48.506;9.050;2023-06-22T04:29:05;6.85;;;6.15;;
13487;SDS011;6816;48.506;9.050;2023-06-22T04:32:08;8.15;;;7.22;;
13487;SDS011;6816;48.506;9.050;2023-06-22T04:35:09;7.45;;;6.57;;
13487;SDS011;6816;48.506;9.050;2023-06-22T04:38:11;7.65;;;6.85;;
13487;SDS011;6816;48.506;9.050;2023-06-22T04:41:13;7.03;;;6.40;;
13487;SDS011;6816;48.506;9.050;2023-06-22T04:44:23;7.43;;;6.72;;
13487;SDS011;6816;48.506;9.050;2023-06-22T04:47:24;8.55;;;6.88;;
13487;SDS011;6816;48.506;9.050;2023-06-22T04:50:24;7.50;;;6.82;;
13487;SDS011;6816;48.506;9.050;2023-06-22T04:53:25;7.97;;;7.25;;
13487;SDS011;6816;48.506;9.050;2023-06-22T04:56:29;10.40;;;7.05;;
13487;SDS011;6816;48.506;9.050;2023-06-22T04:59:30;7.80;;;7.00;;
13487;SDS011;6816;48.506;9.050;2023-06-22T05:02:31;9.50;;;6.90;;
13487;SDS011;6816;48.506;9.050;2023-06-22T05:05:32;7.32;;;6.72;;
13487;SDS011;6816;48.506;9.050;2023-06-22T05:08:33;7.63;;;6.85;;
13487;SDS011;6816;48.506;9.050;2023-06-22T05:11:34;7.55;;;6.82;;
13487;SDS011;6816;48.506;9.050;2023-06-22T05:14:35;9.55;;;7.70;;
13487;SDS011;6816;48.506;9.050;2023-06-22T05:17:36;8.85;;;7.72;;
13487;SDS011;6816;48.506;9.050;2023-06-22T05:20:42;8.60;;;7.65;;
13487;SDS011;6816;48.506;9.050;2023-06-22T05:23:43;10.05;;;7.43;;
13487;SDS011;6816;48.506;9.050;2023-06-22T05:26:43;10.30;;;8.05;;
13487;SDS011;6816;48.506;9.050;2023-06-22T05:29:44;7.85;;;7.25;;
13487;SDS011;6816;48.506;9.050;2023-06-22T05:32:45;9.43;;;8.02;;
13487;SDS011;6816;48.506;9.050;2023-06-22T05:35:45;8.70;;;7.85;;
13487;SDS011;6816;48.506;9.050;2023-06-22T05:38:47;8.95;;;7.93;;
13487;SDS011;6816;48.506;9.050;2023-06-22T05:41:47;8.48;;;7.68;;
13487;SDS011;6816;48.506;9.050;2023-06-22T05:44:48;9.02;;;8.15;;
13487;SDS011;6816;48.506;9.050;2023-06-22T05:47:49;10.48;;;8.30;;
13487;SDS011;6816;48.506;9.050;2023-06-22T05:50:49;8.30;;;7.60;;
13487;SDS011;6816;48.506;9.050;2023-06-22T05:53:50;9.23;;;8.32;;
13487;SDS011;6816;48.506;9.050;2023-06-22T05:56:51;8.07;;;7.38;;
13487;SDS011;6816;48.506;9.050;2023-06-22T05:59:51;8.52;;;7.72;;
13487;SDS011;6816;48.506;9.050;2023-06-22T06:02:53;8.52;;;7.72;;
13487;SDS011;6816;48.506;9.050;2023-06-22T06:05:54;8.65;;;7.53;;
13487;SDS011;6816;48.506;9.050;2023-06-22T06:08:55;8.63;;;7.82;;
13487;SDS011;6816;48.506;9.050;2023-06-22T06:11:56;9.10;;;6.82;;
13487;SDS011;6816;48.506;9.050;2023-06-22T06:14:56;7.13;;;6.50;;
13487;SDS011;6816;48.506;9.050;2023-06-22T06:17:57;8.10;;;7.30;;
13487;SDS011;6816;48.506;9.050;2023-06-22T06:20:58;8.48;;;7.45;;
13487;SDS011;6816;48.506;9.050;2023-06-22T06:23:58;9.05;;;7.95;;
13487;SDS011;6816;48.506;9.050;2023-06-22T06:26:59;8.48;;;6.95;;
13487;SDS011;6816;48.506;9.050;2023-06-22T06:30:00;7.93;;;7.15;;
13487;SDS011;6816;48.506;9.050;2023-06-22T06:33:00;7.57;;;6.78;;
13487;SDS011;6816;48.506;9.050;2023-06-22T06:36:01;7.80;;;6.88;;
13487;SDS011;6816;48.506;9.050;2023-06-22T06:39:03;7.85;;;7.15;;
13487;SDS011;6816;48.506;9.050;2023-06-22T06:42:04;6.80;;;6.07;;
13487;SDS011;6816;48.506;9.050;2023-06-22T06:45:05;6.68;;;6.05;;
13487;SDS011;6816;48.506;9.050;2023-06-22T06:48:06;9.13;;;6.55;;
13487;SDS011;6816;48.506;9.050;2023-06-22T06:51:07;7.60;;;6.90;;
13487;SDS011;6816;48.506;9.050;2023-06-22T06:54:10;7.10;;;6.35;;
13487;SDS011;6816;48.506;9.050;2023-06-22T06:57:11;7.43;;;6.50;;
13487;SDS011;6816;48.506;9.050;2023-06-22T07:00:14;6.07;;;5.53;;
13487;SDS011;6816;48.506;9.050;2023-06-22T07:03:15;7.95;;;5.80;;
13487;SDS011;6816;48.506;9.050;2023-06-22T07:06:15;5.95;;;5.45;;
13487;SDS011;6816;48.506;9.050;2023-06-22T07:09:16;6.40;;;5.80;;
13487;SDS011;6816;48.506;9.050;2023-06-22T07:12:18;8.73;;;5.85;;
13487;SDS011;6816;48.506;9.050;2023-06-22T07:15:19;6.18;;;4.60;;
13487;SDS011;6816;48.506;9.050;2023-06-22T07:18:19;7.18;;;5.22;;
13487;SDS011;6816;48.506;9.050;2023-06-22T07:21:20;7.10;;;5.03;;
13487;SDS011;6816;48.506;9.050;2023-06-22T07:24:21;5.60;;;4.97;;
13487;SDS011;6816;48.506;9.050;2023-06-22T07:27:22;6.18;;;4.47;;
13487;SDS011;6816;48.506;9.050;2023-06-22T07:30:22;6.75;;;4.88;;
13487;SDS011;6816;48.506;9.050;2023-06-22T07:33:23;5.22;;;4.72;;
13487;SDS011;6816;48.506;9.050;2023-06-22T07:36:24;5.53;;;4.63;;
13487;SDS011;6816;48.506;9.050;2023-06-22T07:39:24;6.40;;;4.90;;
13487;SDS011;6816;48.506;9.050;2023-06-22T07:42:26;4.53;;;4.10;;
13487;SDS011;6816;48.506;9.050;2023-06-22T07:45:27;5.55;;;5.00;;
13487;SDS011;6816;48.506;9.050;2023-06-22T07:48:27;5.20;;;4.20;;
13487;SDS011;6816;48.506;9.050;2023-06-22T07:51:28;5.53;;;4.00;;
13487;SDS011;6816;48.506;9.050;2023-06-22T07:54:29;6.60;;;4.45;;
13487;SDS011;6816;48.506;9.050;2023-06-22T07:57:30;4.95;;;4.32;;
13487;SDS011;6816;48.506;9.050;2023-06-22T08:00:34;4.40;;;3.83;;
13487;SDS011;6816;48.506;9.050;2023-06-22T08:03:34;4.65;;;4.13;;
13487;SDS011;6816;48.506;9.050;2023-06-22T08:06:35;6.05;;;4.13;;
13487;SDS011;6816;48.506;9.050;2023-06-22T08:09:36;6.07;;;4.25;;
13487;SDS011;6816;48.506;9.050;2023-06-22T08:12:36;6.90;;;4.55;;
13487;SDS011;6816;48.506;9.050;2023-06-22T08:15:37;5.07;;;4.30;;
13487;SDS011;6816;48.506;9.050;2023-06-22T08:18:38;5.72;;;4.70;;
13487;SDS011;6816;48.506;9.050;2023-06-22T08:21:38;5.40;;;4.72;;
13487;SDS011;6816;48.506;9.050;2023-06-22T08:24:39;5.05;;;4.18;;
13487;SDS011;6816;48.506;9.050;2023-06-22T08:27:40;5.57;;;4.40;;
13487;SDS011;6816;48.506;9.050;2023-06-22T08:30:40;5.78;;;4.32;;
13487;SDS011;6816;48.506;9.050;2023-06-22T08:33:41;6.82;;;5.05;;
13487;SDS011;6816;48.506;9.050;2023-06-22T08:36:43;5.20;;;4.70;;
13487;SDS011;6816;48.506;9.050;2023-06-22T08:39:51;4.85;;;4.40;;
13487;SDS011;6816;48.506;9.050;2023-06-22T08:42:51;6.78;;;4.72;;
13487;SDS011;6816;48.506;9.050;2023-06-22T08:45:52;8.82;;;4.65;;
13487;SDS011;6816;48.506;9.050;2023-06-22T08:48:53;5.95;;;4.43;;
13487;SDS011;6816;48.506;9.050;2023-06-22T08:51:53;5.68;;;4.80;;
13487;SDS011;6816;48.506;9.050;2023-06-22T08:54:56;5.07;;;4.07;;
13487;SDS011;6816;48.506;9.050;2023-06-22T08:57:58;5.25;;;4.68;;
13487;SDS011;6816;48.506;9.050;2023-06-22T09:00:58;7.07;;;4.63;;
13487;SDS011;6816;48.506;9.050;2023-06-22T09:04:01;5.85;;;4.50;;
13487;SDS011;6816;48.506;9.050;2023-06-22T09:07:01;7.25;;;4.78;;
13487;SDS011;6816;48.506;9.050;2023-06-22T09:10:02;5.68;;;5.00;;
13487;SDS011;6816;48.506;9.050;2023-06-22T09:13:07;5.75;;;4.50;;
13487;SDS011;6816;48.506;9.050;2023-06-22T09:16:07;5.47;;;4.40;;
13487;SDS011;6816;48.506;9.050;2023-06-22T09:19:08;7.25;;;4.55;;
13487;SDS011;6816;48.506;9.050;2023-06-22T09:22:09;6.80;;;4.47;;
13487;SDS011;6816;48.506;9.050;2023-06-22T09:25:09;4.85;;;4.45;;
13487;SDS011;6816;48.506;9.050;2023-06-22T09:28:10;6.30;;;4.40;;
13487;SDS011;6816;48.506;9.050;2023-06-22T09:31:11;5.25;;;4.65;;
13487;SDS011;6816;48.506;9.050;2023-06-22T09:34:11;4.95;;;4.55;;
13487;SDS011;6816;48.506;9.050;2023-06-22T09:37:12;7.10;;;5.03;;
13487;SDS011;6816;48.506;9.050;2023-06-22T09:40:13;6.55;;;4.85;;
13487;SDS011;6816;48.506;9.050;2023-06-22T09:43:16;6.30;;;5.00;;
13487;SDS011;6816;48.506;9.050;2023-06-22T09:46:17;5.57;;;4.97;;
13487;SDS011;6816;48.506;9.050;2023-06-22T09:49:18;6.80;;;4.70;;
13487;SDS011;6816;48.506;9.050;2023-06-22T09:52:18;5.18;;;4.60;;
13487;SDS011;6816;48.506;9.050;2023-06-22T09:55:19;7.03;;;4.60;;
13487;SDS011;6816;48.506;9.050;2023-06-22T09:58:20;5.88;;;4.50;;
13487;SDS011;6816;48.506;9.050;2023-06-22T10:01:20;5.47;;;4.50;;
13487;SDS011;6816;48.506;9.050;2023-06-22T10:04:21;7.40;;;5.03;;
13487;SDS011;6816;48.506;9.050;2023-06-22T10:07:22;6.88;;;4.32;;
13487;SDS011;6816;48.506;9.050;2023-06-22T10:10:22;5.50;;;4.60;;
13487;SDS011;6816;48.506;9.050;2023-06-22T10:13:23;5.47;;;4.88;;
13487;SDS011;6816;48.506;9.050;2023-06-22T10:16:29;8.48;;;5.10;;
13487;SDS011;6816;48.506;9.050;2023-06-22T10:19:31;9.10;;;5.05;;
13487;SDS011;6816;48.506;9.050;2023-06-22T10:22:31;5.00;;;4.38;;
13487;SDS011;6816;48.506;9.050;2023-06-22T10:25:32;5.60;;;5.10;;
13487;SDS011;6816;48.506;9.050;2023-06-22T10:28:32;5.90;;;4.75;;
13487;SDS011;6816;48.506;9.050;2023-06-22T10:31:33;8.13;;;4.93;;
13487;SDS011;6816;48.506;9.050;2023-06-22T10:34:33;8.00;;;4.97;;
13487;SDS011;6816;48.506;9.050;2023-06-22T10:37:35;6.47;;;4.80;;
13487;SDS011;6816;48.506;9.050;2023-06-22T10:40:36;9.25;;;4.93;;
13487;SDS011;6816;48.506;9.050;2023-06-22T10:43:36;5.82;;;4.70;;
13487;SDS011;6816;48.506;9.050;2023-06-22T10:46:37;5.80;;;4.78;;
13487;SDS011;6816;48.506;9.050;2023-06-22T10:49:38;10.18;;;5.28;;
13487;SDS011;6816;48.506;9.050;2023-06-22T10:52:39;5.35;;;4.50;;
13487;SDS011;6816;48.506;9.050;2023-06-22T10:55:41;6.30;;;5.30;;
13487;SDS011;6816;48.506;9.050;2023-06-22T10:58:42;5.10;;;4.60;;
13487;SDS011;6816;48.506;9.050;2023-06-22T11:01:43;6.38;;;4.78;;
13487;SDS011;6816;48.506;9.050;2023-06-22T11:04:43;5.72;;;5.22;;
13487;SDS011;6816;48.506;9.050;2023-06-22T11:07:44;5.88;;;4.50;;
13487;SDS011;6816;48.506;9.050;2023-06-22T11:10:44;5.88;;;5.20;;
13487;SDS011;6816;48.506;9.050;2023-06-22T11:13:45;7.60;;;5.18;;
13487;SDS011;6816;48.506;9.050;2023-06-22T11:16:46;5.93;;;5.15;;
13487;SDS011;6816;48.506;9.050;2023-06-22T11:19:46;6.70;;;4.90;;
13487;SDS011;6816;48.506;9.050;2023-06-22T11:22:47;5.35;;;4.85;;
13487;SDS011;6816;48.506;9.050;2023-06-22T11:25:47;5.13;;;4.63;;
13487;SDS011;6816;48.506;9.050;2023-06-22T11:28:48;5.55;;;4.85;;
13487;SDS011;6816;48.506;9.050;2023-06-22T11:31:49;6.68;;;4.63;;
13487;SDS011;6816;48.506;9.050;2023-06-22T11:34:49;7.32;;;4.85;;
13487;SDS011;6816;48.506;9.050;2023-06-22T11:37:50;6.18;;;4.95;;
13487;SDS011;6816;48.506;9.050;2023-06-22T11:40:50;5.88;;;4.35;;
13487;SDS011;6816;48.506;9.050;2023-06-22T11:43:51;8.02;;;4.95;;
13487;SDS011;6816;48.506;9.050;2023-06-22T11:46:52;5.03;;;4.53;;
13487;SDS011;6816;48.506;9.050;2023-06-22T11:49:52;5.68;;;4.80;;
13487;SDS011;6816;48.506;9.050;2023-06-22T11:52:53;5.30;;;4.80;;
13487;SDS011;6816;48.506;9.050;2023-06-22T11:55:53;5.60;;;4.72;;
13487;SDS011;6816;48.506;9.050;2023-06-22T11:58:55;6.28;;;4.75;;
13487;SDS011;6816;48.506;9.050;2023-06-22T12:01:56;5.55;;;4.85;;
13487;SDS011;6816;48.506;9.050;2023-06-22T12:04:58;6.57;;;4.80;;
13487;SDS011;6816;48.506;9.050;2023-06-22T12:07:58;4.78;;;4.30;;
13487;SDS011;6816;48.506;9.050;2023-06-22T12:10:59;6.53;;;4.97;;
13487;SDS011;6816;48.506;9.050;2023-06-22T12:13:59;5.20;;;4.70;;
13487;SDS011;6816;48.506;9.050;2023-06-22T12:17:01;6.93;;;4.85;;
13487;SDS011;6816;48.506;9.050;2023-06-22T12:20:02;5.50;;;4.97;;
13487;SDS011;6816;48.506;9.050;2023-06-22T12:23:06;6.30;;;4.95;;
13487;SDS011;6816;48.506;9.050;2023-06-22T12:26:06;6.63;;;5.15;;
13487;SDS011;6816;48.506;9.050;2023-06-22T12:29:07;6.50;;;4.38;;
13487;SDS011;6816;48.506;9.050;2023-06-22T12:32:07;5.35;;;4.53;;
13487;SDS011;6816;48.506;9.050;2023-06-22T12:35:08;6.47;;;4.70;;
13487;SDS011;6816;48.506;9.050;2023-06-22T12:38:13;7.30;;;5.05;;
13487;SDS011;6816;48.506;9.050;2023-06-22T12:41:14;6.90;;;5.30;;
13487;SDS011;6816;48.506;9.050;2023-06-22T12:44:14;5.18;;;4.68;;
13487;SDS011;6816;48.506;9.050;2023-06-22T12:47:15;6.75;;;5.22;;
13487;SDS011;6816;48.506;9.050;2023-06-22T12:50:16;5.55;;;4.75;;
13487;SDS011;6816;48.506;9.050;2023-06-22T12:53:16;6.13;;;5.20;;
13487;SDS011;6816;48.506;9.050;2023-06-22T12:56:17;6.28;;;4.70;;
13487;SDS011;6816;48.506;9.050;2023-06-22T12:59:17;5.30;;;4.20;;
13487;SDS011;6816;48.506;9.050;2023-06-22T13:02:18;6.13;;;4.82;;
13487;SDS011;6816;48.506;9.050;2023-06-22T13:05:19;9.43;;;5.95;;
13487;SDS011;6816;48.506;9.050;2023-06-22T13:08:19;5.45;;;4.78;;
13487;SDS011;6816;48.506;9.050;2023-06-22T13:11:20;5.70;;;4.47;;
13487;SDS011;6816;48.506;9.050;2023-06-22T13:14:21;6.35;;;4.68;;
13487;SDS011;6816;48.506;9.050;2023-06-22T13:17:21;10.18;;;4.60;;
13487;SDS011;6816;48.506;9.050;2023-06-22T13:20:22;7.10;;;4.65;;
13487;SDS011;6816;48.506;9.050;2023-06-22T13:23:22;5.60;;;4.68;;
13487;SDS011;6816;48.506;9.050;2023-06-22T13:26:23;5.90;;;4.65;;
13487;SDS011;6816;48.506;9.050;2023-06-22T13:29:24;7.32;;;5.10;;
13487;SDS011;6816;48.506;9.050;2023-06-22T13:32:24;6.22;;;4.80;;
13487;SDS011;6816;48.506;9.050;2023-06-22T13:35:25;5.95;;;5.10;;
13487;SDS011;6816;48.506;9.050;2023-06-22T13:38:26;9.35;;;4.75;;
13487;SDS011;6816;48.506;9.050;2023-06-22T13:41:26;5.70;;;4.93;;
13487;SDS011;6816;48.506;9.050;2023-06-22T13:44:27;5.93;;;4.60;;
13487;SDS011;6816;48.506;9.050;2023-06-22T13:47:29;9.13;;;4.88;;
13487;SDS011;6816;48.506;9.050;2023-06-22T13:50:30;7.07;;;4.95;;
13487;SDS011;6816;48.506;9.050;2023-06-22T13:53:31;5.78;;;4.43;;
13487;SDS011;6816;48.506;9.050;2023-06-22T13:56:32;5.82;;;4.82;;
13487;SDS011;6816;48.506;9.050;2023-06-22T13:59:32;5.88;;;4.85;;
13487;SDS011;6816;48.506;9.050;2023-06-22T14:02:33;5.57;;;4.63;;
13487;SDS011;6816;48.506;9.050;2023-06-22T14:05:34;6.00;;;4.47;;
13487;SDS011;6816;48.506;9.050;2023-06-22T14:08:35;8.02;;;5.13;;
13487;SDS011;6816;48.506;9.050;2023-06-22T14:11:36;5.18;;;4.63;;
13487;SDS011;6816;48.506;9.050;2023-06-22T14:14:37;5.90;;;5.22;;
13487;SDS011;6816;48.506;9.050;2023-06-22T14:17:38;6.80;;;4.65;;
13487;SDS011;6816;48.506;9.050;2023-06-22T14:20:39;5.70;;;4.30;;
13487;SDS011;6816;48.506;9.050;2023-06-22T14:23:40;9.27;;;5.35;;
13487;SDS011;6816;48.506;9.050;2023-06-22T14:26:40;8.05;;;5.00;;
13487;SDS011;6816;48.506;9.050;2023-06-22T14:29:41;6.30;;;4.85;;
13487;SDS011;6816;48.506;9.050;2023-06-22T14:32:43;6.13;;;5.20;;
13487;SDS011;6816;48.506;9.050;2023-06-22T14:35:44;4.97;;;4.47;;
13487;SDS011;6816;48.506;9.050;2023-06-22T14:38:44;7.00;;;4.95;;
13487;SDS011;6816;48.506;9.050;2023-06-22T14:41:46;7.30;;;5.03;;
13487;SDS011;6816;48.506;9.050;2023-06-22T14:44:46;6.70;;;4.88;;
13487;SDS011;6816;48.506;9.050;2023-06-22T14:47:47;8.82;;;4.75;;
13487;SDS011;6816;48.506;9.050;2023-06-22T14:50:48;7.53;;;4.65;;
13487;SDS011;6816;48.506;9.050;2023-06-22T14:53:49;6.03;;;3.97;;
13487;SDS011;6816;48.506;9.050;2023-06-22T14:56:50;5.20;;;3.95;;
13487;SDS011;6816;48.506;9.050;2023-06-22T14:59:50;5.47;;;3.67;;
13487;SDS011;6816;48.506;9.050;2023-06-22T15:02:51;4.53;;;3.35;;
13487;SDS011;6816;48.506;9.050;2023-06-22T15:05:51;8.02;;;3.58;;
13487;SDS011;6816;48.506;9.050;2023-06-22T15:08:52;6.45;;;3.13;;
13487;SDS011;6816;48.506;9.050;2023-06-22T15:11:53;5.90;;;2.97;;
13487;SDS011;6816;48.506;9.050;2023-06-22T15:14:53;9.48;;;2.80;;
13487;SDS011;6816;48.506;9.050;2023-06-22T15:17:54;5.55;;;3.03;;
13487;SDS011;6816;48.506;9.050;2023-06-22T15:20:55;7.35;;;3.50;;
13487;SDS011;6816;48.506;9.050;2023-06-22T15:23:55;6.90;;;2.65;;
13487;SDS011;6816;48.506;9.050;2023-06-22T15:26:56;5.90;;;3.00;;
13487;SDS011;6816;48.506;9.050;2023-06-22T15:29:57;4.65;;;2.55;;
13487;SDS011;6816;48.506;9.050;2023-06-22T15:32:57;4.10;;;2.28;;
13487;SDS011;6816;48.506;9.050;2023-06-22T15:35:58;3.70;;;2.20;;
13487;SDS011;6816;48.506;9.050;2023-06-22T15:39:03;7.93;;;2.65;;
13487;SDS011;6816;48.506;9.050;2023-06-22T15:42:04;5.55;;;2.55;;
13487;SDS011;6816;48.506;9.050;2023-06-22T15:45:05;9.73;;;2.45;;
13487;SDS011;6816;48.506;9.050;2023-06-22T15:48:06;5.68;;;3.05;;
13487;SDS011;6816;48.506;9.050;2023-06-22T15:51:06;4.68;;;2.88;;
13487;SDS011;6816;48.506;9.050;2023-06-22T15:54:07;7.07;;;2.70;;
13487;SDS011;6816;48.506;9.050;2023-06-22T15:57:08;6.15;;;2.90;;
13487;SDS011;6816;48.506;9.050;2023-06-22T16:00:08;5.75;;;2.80;;
13487;SDS011;6816;48.506;9.050;2023-06-22T16:03:14;6.55;;;3.15;;
13487;SDS011;6816;48.506;9.050;2023-06-22T16:06:14;4.15;;;2.60;;
13487;SDS011;6816;48.506;9.050;2023-06-22T16:09:15;4.85;;;3.10;;
13487;SDS011;6816;48.506;9.050;2023-06-22T16:12:16;6.10;;;2.97;;
13487;SDS011;6816;48.506;9.050;2023-06-22T16:15:16;5.57;;;2.88;;
13487;SDS011;6816;48.506;9.050;2023-06-22T16:18:17;4.47;;;2.70;;
13487;SDS011;6816;48.506;9.050;2023-06-22T16:21:18;5.35;;;3.00;;
13487;SDS011;6816;48.506;9.050;2023-06-22T16:24:18;4.78;;;2.80;;
13487;SDS011;6816;48.506;9.050;2023-06-22T16:27:19;4.28;;;2.47;;
13487;SDS011;6816;48.506;9.050;2023-06-22T16:30:19;7.40;;;3.15;;
13487;SDS011;6816;48.506;9.050;2023-06-22T16:33:20;6.30;;;2.75;;
13487;SDS011;6816;48.506;9.050;2023-06-22T16:36:21;4.43;;;3.10;;
13487;SDS011;6816;48.506;9.050;2023-06-22T16:39:21;4.68;;;3.00;;
13487;SDS011;6816;48.506;9.050;2023-06-22T16:42:22;6.45;;;3.03;;
13487;SDS011;6816;48.506;9.050;2023-06-22T16:45:23;6.05;;;3.40;;
13487;SDS011;6816;48.506;9.050;2023-06-22T16:48:24;5.28;;;2.72;;
13487;SDS011;6816;48.506;9.050;2023-06-22T16:51:25;7.30;;;3.65;;
13487;SDS011;6816;48.506;9.050;2023-06-22T16:54:25;5.20;;;2.88;;
13487;SDS011;6816;48.506;9.050;2023-06-22T16:57:32;6.78;;;2.78;;
13487;SDS011;6816;48.506;9.050;2023-06-22T17:00:33;5.38;;;3.00;;
13487;SDS011;6816;48.506;9.050;2023-06-22T17:03:35;5.90;;;2.92;;
13487;SDS011;6816;48.506;9.050;2023-06-22T17:06:46;6.85;;;2.70;;
13487;SDS011;6816;48.506;9.050;2023-06-22T17:09:53;5.88;;;2.80;;
13487;SDS011;6816;48.506;9.050;2023-06-22T17:12:56;5.22;;;3.00;;
13487;SDS011;6816;48.506;9.050;2023-06-22T17:15:58;5.68;;;3.15;;
13487;SDS011;6816;48.506;9.050;2023-06-22T17:19:01;4.75;;;2.53;;
13487;SDS011;6816;48.506;9.050;2023-06-22T17:22:05;5.18;;;3.00;;
13487;SDS011;6816;48.506;9.050;2023-06-22T17:25:06;4.55;;;2.50;;
13487;SDS011;6816;48.506;9.050;2023-06-22T17:28:08;4.53;;;2.63;;
13487;SDS011;6816;48.506;9.050;2023-06-22T17:31:09;4.78;;;2.30;;
13487;SDS011;6816;48.506;9.050;2023-06-22T17:34:10;7.00;;;2.30;;
13487;SDS011;6816;48.506;9.050;2023-06-22T17:37:12;3.30;;;2.08;;
13487;SDS011;6816;48.506;9.050;2023-06-22T17:40:16;4.70;;;2.05;;
13487;SDS011;6816;48.506;9.050;2023-06-22T17:43:19;5.00;;;2.42;;
13487;SDS011;6816;48.506;9.050;2023-06-22T17:46:20;2.97;;;2.08;;
13487;SDS011;6816;48.506;9.050;2023-06-22T17:49:25;4.38;;;2.42;;
13487;SDS011;6816;48.506;9.050;2023-06-22T17:52:27;4.43;;;2.08;;
13487;SDS011;6816;48.506;9.050;2023-06-22T17:55:30;4.93;;;2.30;;
13487;SDS011;6816;48.506;9.050;2023-06-22T17:58:33;6.22;;;2.53;;
13487;SDS011;6816;48.506;9.050;2023-06-22T18:01:35;4.35;;;2.35;;
13487;SDS011;6816;48.506;9.050;2023-06-22T18:04:40;7.20;;;2.50;;
13487;SDS011;6816;48.506;9.050;2023-06-22T18:07:40;3.92;;;2.28;;
13487;SDS011;6816;48.506;9.050;2023-06-22T18:10:41;4.90;;;2.15;;
13487;SDS011;6816;48.506;9.050;2023-06-22T18:13:43;4.47;;;1.90;;
13487;SDS011;6816;48.506;9.050;2023-06-22T18:16:45;5.55;;;2.30;;
13487;SDS011;6816;48.506;9.050;2023-06-22T18:19:47;4.57;;;2.13;;
13487;SDS011;6816;48.506;9.050;2023-06-22T18:22:48;4.13;;;2.20;;
13487;SDS011;6816;48.506;9.050;2023-06-22T18:25:49;3.15;;;1.83;;
13487;SDS011;6816;48.506;9.050;2023-06-22T18:28:51;4.40;;;2.08;;
13487;SDS011;6816;48.506;9.050;2023-06-22T18:31:55;3.50;;;2.00;;
13487;SDS011;6816;48.506;9.050;2023-06-22T18:34:56;7.60;;;2.42;;
13487;SDS011;6816;48.506;9.050;2023-06-22T18:37:57;3.00;;;2.10;;